sensor_id;sensor_type;location;lat;lon;timestamp;P1;durP1;ratioP1;P2;durP2;ratioP2
52112;SDS011;38109;49.488;31.988;2023-05-07T00:02:06;2.25;;;1.40;;
52112;SDS011;38109;49.488;31.988;2023-05-07T00:04:32;2.63;;;1.70;;
52112;SDS011;38109;49.488;31.988;2023-05-07T00:07:01;2.53;;;1.30;;
52112;SDS011;38109;49.488;31.988;2023-05-07T00:09:27;2.13;;;1.52;;
52112;SDS011;38109;49.488;31.988;2023-05-07T00:11:53;2.13;;;1.55;;
52112;SDS011;38109;49.488;31.988;2023-05-07T00:14:19;2.47;;;1.60;;
52112;SDS011;38109;49.488;31.988;2023-05-07T00:16:45;2.10;;;1.30;;
52112;SDS011;38109;49.488;31.988;2023-05-07T00:19:11;1.80;;;1.40;;
52112;SDS011;38109;49.488;31.988;2023-05-07T00:21:37;1.67;;;1.48;;
52112;SDS011;38109;49.488;31.988;2023-05-07T00:24:03;2.03;;;1.70;;
52112;SDS011;38109;49.488;31.988;2023-05-07T00:26:29;1.45;;;1.35;;
52112;SDS011;38109;49.488;31.988;2023-05-07T00:28:54;1.75;;;1.30;;
52112;SDS011;38109;49.488;31.988;2023-05-07T00:31:20;1.30;;;1.20;;
52112;SDS011;38109;49.488;31.988;2023-05-07T00:33:46;1.83;;;1.63;;
52112;SDS011;38109;49.488;31.988;2023-05-07T00:36:11;2.45;;;1.70;;
52112;SDS011;38109;49.488;31.988;2023-05-07T00:38:37;1.90;;;1.40;;
52112;SDS011;38109;49.488;31.988;2023-05-07T00:41:03;2.78;;;1.70;;
52112;SDS011;38109;49.488;31.988;2023-05-07T00:43:28;3.53;;;1.65;;
52112;SDS011;38109;49.488;31.988;2023-05-07T00:45:54;2.65;;;1.58;;
52112;SDS011;38109;49.488;31.988;2023-05-07T00:48:20;1.52;;;1.33;;
52112;SDS011;38109;49.488;31.988;2023-05-07T00:50:46;2.03;;;1.50;;
52112;SDS011;38109;49.488;31.988;2023-05-07T00:53:13;1.92;;;1.48;;
52112;SDS011;38109;49.488;31.988;2023-05-07T00:55:39;1.50;;;1.40;;
52112;SDS011;38109;49.488;31.988;2023-05-07T00:58:05;1.60;;;1.50;;
52112;SDS011;38109;49.488;31.988;2023-05-07T01:00:31;3.30;;;1.55;;
52112;SDS011;38109;49.488;31.988;2023-05-07T01:02:57;1.98;;;1.52;;
52112;SDS011;38109;49.488;31.988;2023-05-07T01:09:04;2.17;;;1.40;;
52112;SDS011;38109;49.488;31.988;2023-05-07T01:14:53;2.70;;;1.58;;
52112;SDS011;38109;49.488;31.988;2023-05-07T01:20:49;1.70;;;1.40;;
52112;SDS011;38109;49.488;31.988;2023-05-07T01:26:52;3.03;;;1.90;;
52112;SDS011;38109;49.488;31.988;2023-05-07T01:32:52;2.30;;;1.50;;
52112;SDS011;38109;49.488;31.988;2023-05-07T01:39:19;2.40;;;1.73;;
52112;SDS011;38109;49.488;31.988;2023-05-07T01:41:44;2.10;;;1.35;;
52112;SDS011;38109;49.488;31.988;2023-05-07T01:44:11;1.60;;;1.48;;
52112;SDS011;38109;49.488;31.988;2023-05-07T01:46:38;2.13;;;1.50;;
52112;SDS011;38109;49.488;31.988;2023-05-07T01:49:04;1.27;;;1.17;;
52112;SDS011;38109;49.488;31.988;2023-05-07T01:51:29;2.15;;;1.45;;
52112;SDS011;38109;49.488;31.988;2023-05-07T01:53:56;1.77;;;1.40;;
52112;SDS011;38109;49.488;31.988;2023-05-07T01:56:23;2.03;;;1.50;;
52112;SDS011;38109;49.488;31.988;2023-05-07T01:58:49;2.33;;;1.60;;
52112;SDS011;38109;49.488;31.988;2023-05-07T02:01:16;1.52;;;1.30;;
52112;SDS011;38109;49.488;31.988;2023-05-07T02:03:41;2.28;;;1.52;;
52112;SDS011;38109;49.488;31.988;2023-05-07T02:06:07;1.92;;;1.55;;
52112;SDS011;38109;49.488;31.988;2023-05-07T02:08:33;2.00;;;1.60;;
52112;SDS011;38109;49.488;31.988;2023-05-07T02:10:58;1.67;;;1.33;;
52112;SDS011;38109;49.488;31.988;2023-05-07T02:13:24;1.70;;;1.52;;
52112;SDS011;38109;49.488;31.988;2023-05-07T02:15:51;1.55;;;1.45;;
52112;SDS011;38109;49.488;31.988;2023-05-07T02:18:18;1.80;;;1.40;;
52112;SDS011;38109;49.488;31.988;2023-05-07T02:20:44;2.00;;;1.30;;
52112;SDS011;38109;49.488;31.988;2023-05-07T02:23:09;1.30;;;1.20;;
52112;SDS011;38109;49.488;31.988;2023-05-07T02:25:35;1.65;;;1.50;;
52112;SDS011;38109;49.488;31.988;2023-05-07T02:28:01;2.47;;;1.50;;
52112;SDS011;38109;49.488;31.988;2023-05-07T02:30:26;1.77;;;1.33;;
52112;SDS011;38109;49.488;31.988;2023-05-07T02:32:52;2.05;;;1.35;;
52112;SDS011;38109;49.488;31.988;2023-05-07T02:35:17;2.67;;;1.50;;
52112;SDS011;38109;49.488;31.988;2023-05-07T02:37:43;2.47;;;1.33;;
52112;SDS011;38109;49.488;31.988;2023-05-07T02:40:09;1.83;;;1.38;;
52112;SDS011;38109;49.488;31.988;2023-05-07T02:42:36;1.60;;;1.23;;
52112;SDS011;38109;49.488;31.988;2023-05-07T02:45:01;2.47;;;1.42;;
52112;SDS011;38109;49.488;31.988;2023-05-07T02:47:27;2.05;;;1.52;;
52112;SDS011;38109;49.488;31.988;2023-05-07T02:49:53;2.50;;;1.58;;
52112;SDS011;38109;49.488;31.988;2023-05-07T02:52:20;1.95;;;1.60;;
52112;SDS011;38109;49.488;31.988;2023-05-07T02:54:46;1.40;;;1.30;;
52112;SDS011;38109;49.488;31.988;2023-05-07T02:57:11;3.90;;;1.58;;
52112;SDS011;38109;49.488;31.988;2023-05-07T02:59:37;1.55;;;1.40;;
52112;SDS011;38109;49.488;31.988;2023-05-07T03:02:03;1.92;;;1.60;;
52112;SDS011;38109;49.488;31.988;2023-05-07T03:04:28;1.98;;;1.50;;
52112;SDS011;38109;49.488;31.988;2023-05-07T03:06:54;1.38;;;1.20;;
52112;SDS011;38109;49.488;31.988;2023-05-07T03:09:20;2.15;;;1.48;;
52112;SDS011;38109;49.488;31.988;2023-05-07T03:11:45;2.22;;;1.67;;
52112;SDS011;38109;49.488;31.988;2023-05-07T03:14:11;1.52;;;1.42;;
52112;SDS011;38109;49.488;31.988;2023-05-07T03:16:37;1.60;;;1.48;;
52112;SDS011;38109;49.488;31.988;2023-05-07T03:19:03;1.45;;;1.35;;
52112;SDS011;38109;49.488;31.988;2023-05-07T03:21:29;1.75;;;1.50;;
52112;SDS011;38109;49.488;31.988;2023-05-07T03:23:55;1.75;;;1.42;;
52112;SDS011;38109;49.488;31.988;2023-05-07T03:26:21;1.75;;;1.50;;
52112;SDS011;38109;49.488;31.988;2023-05-07T03:28:47;3.90;;;1.60;;
52112;SDS011;38109;49.488;31.988;2023-05-07T03:31:12;1.98;;;1.80;;
52112;SDS011;38109;49.488;31.988;2023-05-07T03:33:47;1.70;;;1.40;;
52112;SDS011;38109;49.488;31.988;2023-05-07T03:36:21;1.42;;;1.33;;
52112;SDS011;38109;49.488;31.988;2023-05-07T03:38:47;2.28;;;1.50;;
52112;SDS011;38109;49.488;31.988;2023-05-07T03:41:13;1.45;;;1.23;;
52112;SDS011;38109;49.488;31.988;2023-05-07T03:43:39;1.40;;;1.30;;
52112;SDS011;38109;49.488;31.988;2023-05-07T03:46:04;3.15;;;1.70;;
52112;SDS011;38109;49.488;31.988;2023-05-07T03:48:30;2.72;;;1.70;;
52112;SDS011;38109;49.488;31.988;2023-05-07T03:50:57;2.35;;;1.70;;
52112;SDS011;38109;49.488;31.988;2023-05-07T03:53:23;1.50;;;1.40;;
52112;SDS011;38109;49.488;31.988;2023-05-07T03:55:49;1.60;;;1.50;;
52112;SDS011;38109;49.488;31.988;2023-05-07T03:58:15;1.73;;;1.58;;
52112;SDS011;38109;49.488;31.988;2023-05-07T04:00:40;2.42;;;1.50;;
52112;SDS011;38109;49.488;31.988;2023-05-07T04:03:06;1.77;;;1.55;;
52112;SDS011;38109;49.488;31.988;2023-05-07T04:05:32;2.13;;;1.50;;
52112;SDS011;38109;49.488;31.988;2023-05-07T04:07:58;4.78;;;1.60;;
52112;SDS011;38109;49.488;31.988;2023-05-07T04:10:24;2.17;;;1.50;;
52112;SDS011;38109;49.488;31.988;2023-05-07T04:12:50;2.28;;;1.45;;
52112;SDS011;38109;49.488;31.988;2023-05-07T04:15:16;2.30;;;1.63;;
52112;SDS011;38109;49.488;31.988;2023-05-07T04:17:41;1.92;;;1.50;;
52112;SDS011;38109;49.488;31.988;2023-05-07T04:20:13;1.70;;;1.60;;
52112;SDS011;38109;49.488;31.988;2023-05-07T04:22:41;1.60;;;1.48;;
52112;SDS011;38109;49.488;31.988;2023-05-07T04:25:07;1.55;;;1.30;;
52112;SDS011;38109;49.488;31.988;2023-05-07T04:27:36;1.95;;;1.50;;
52112;SDS011;38109;49.488;31.988;2023-05-07T04:30:02;1.60;;;1.20;;
52112;SDS011;38109;49.488;31.988;2023-05-07T04:32:29;2.10;;;1.50;;
52112;SDS011;38109;49.488;31.988;2023-05-07T04:34:55;1.95;;;1.30;;
52112;SDS011;38109;49.488;31.988;2023-05-07T04:37:21;1.58;;;1.20;;
52112;SDS011;38109;49.488;31.988;2023-05-07T04:39:47;1.83;;;1.30;;
52112;SDS011;38109;49.488;31.988;2023-05-07T04:42:16;1.40;;;1.20;;
52112;SDS011;38109;49.488;31.988;2023-05-07T04:44:43;1.75;;;1.30;;
52112;SDS011;38109;49.488;31.988;2023-05-07T04:47:10;1.70;;;1.35;;
52112;SDS011;38109;49.488;31.988;2023-05-07T04:49:36;1.92;;;1.30;;
52112;SDS011;38109;49.488;31.988;2023-05-07T04:52:02;1.40;;;1.20;;
52112;SDS011;38109;49.488;31.988;2023-05-07T04:54:28;1.35;;;1.20;;
52112;SDS011;38109;49.488;31.988;2023-05-07T04:56:54;1.20;;;1.10;;
52112;SDS011;38109;49.488;31.988;2023-05-07T04:59:20;1.42;;;1.20;;
52112;SDS011;38109;49.488;31.988;2023-05-07T05:01:46;1.83;;;1.20;;
52112;SDS011;38109;49.488;31.988;2023-05-07T05:04:11;1.92;;;1.35;;
52112;SDS011;38109;49.488;31.988;2023-05-07T05:06:50;1.50;;;1.40;;
52112;SDS011;38109;49.488;31.988;2023-05-07T05:09:15;1.20;;;1.10;;
52112;SDS011;38109;49.488;31.988;2023-05-07T05:11:41;2.10;;;1.20;;
52112;SDS011;38109;49.488;31.988;2023-05-07T05:14:07;1.33;;;1.23;;
52112;SDS011;38109;49.488;31.988;2023-05-07T05:16:32;1.27;;;1.17;;
52112;SDS011;38109;49.488;31.988;2023-05-07T05:19:08;1.42;;;1.23;;
52112;SDS011;38109;49.488;31.988;2023-05-07T05:24:59;1.65;;;1.08;;
52112;SDS011;38109;49.488;31.988;2023-05-07T05:27:25;1.27;;;1.10;;
52112;SDS011;38109;49.488;31.988;2023-05-07T05:29:51;2.55;;;1.20;;
52112;SDS011;38109;49.488;31.988;2023-05-07T05:32:16;1.20;;;1.10;;
52112;SDS011;38109;49.488;31.988;2023-05-07T05:34:42;1.73;;;1.20;;
52112;SDS011;38109;49.488;31.988;2023-05-07T05:37:08;1.10;;;1.00;;
52112;SDS011;38109;49.488;31.988;2023-05-07T05:39:33;1.15;;;1.05;;
52112;SDS011;38109;49.488;31.988;2023-05-07T05:41:59;1.10;;;1.00;;
52112;SDS011;38109;49.488;31.988;2023-05-07T05:44:25;2.40;;;1.00;;
52112;SDS011;38109;49.488;31.988;2023-05-07T05:46:50;0.85;;;0.85;;
52112;SDS011;38109;49.488;31.988;2023-05-07T05:49:16;1.48;;;1.13;;
52112;SDS011;38109;49.488;31.988;2023-05-07T05:51:42;1.10;;;1.00;;
52112;SDS011;38109;49.488;31.988;2023-05-07T05:54:08;1.20;;;1.10;;
52112;SDS011;38109;49.488;31.988;2023-05-07T06:03:22;1.10;;;1.00;;
52112;SDS011;38109;49.488;31.988;2023-05-07T06:09:26;1.48;;;1.02;;
52112;SDS011;38109;49.488;31.988;2023-05-07T06:18:40;2.38;;;1.30;;
52112;SDS011;38109;49.488;31.988;2023-05-07T06:24:34;1.08;;;0.98;;
52112;SDS011;38109;49.488;31.988;2023-05-07T06:30:26;0.98;;;0.90;;
52112;SDS011;38109;49.488;31.988;2023-05-07T06:32:52;0.82;;;0.82;;
52112;SDS011;38109;49.488;31.988;2023-05-07T06:35:17;1.33;;;1.00;;
52112;SDS011;38109;49.488;31.988;2023-05-07T06:37:44;0.88;;;0.88;;
52112;SDS011;38109;49.488;31.988;2023-05-07T06:40:10;1.30;;;1.20;;
52112;SDS011;38109;49.488;31.988;2023-05-07T06:42:36;2.10;;;0.90;;
52112;SDS011;38109;49.488;31.988;2023-05-07T06:45:02;1.77;;;1.00;;
52112;SDS011;38109;49.488;31.988;2023-05-07T06:47:28;0.90;;;0.90;;
52112;SDS011;38109;49.488;31.988;2023-05-07T06:49:54;2.30;;;0.93;;
52112;SDS011;38109;49.488;31.988;2023-05-07T06:52:20;1.02;;;0.98;;
52112;SDS011;38109;49.488;31.988;2023-05-07T06:54:46;2.05;;;0.95;;
52112;SDS011;38109;49.488;31.988;2023-05-07T06:57:12;1.48;;;0.90;;
52112;SDS011;38109;49.488;31.988;2023-05-07T06:59:37;1.00;;;0.90;;
52112;SDS011;38109;49.488;31.988;2023-05-07T07:02:03;0.85;;;0.85;;
52112;SDS011;38109;49.488;31.988;2023-05-07T07:04:28;1.20;;;1.10;;
52112;SDS011;38109;49.488;31.988;2023-05-07T07:06:55;0.80;;;0.80;;
52112;SDS011;38109;49.488;31.988;2023-05-07T07:09:21;1.05;;;0.93;;
52112;SDS011;38109;49.488;31.988;2023-05-07T07:11:47;1.33;;;1.00;;
52112;SDS011;38109;49.488;31.988;2023-05-07T07:14:13;0.90;;;0.90;;
52112;SDS011;38109;49.488;31.988;2023-05-07T07:16:39;1.27;;;0.98;;
52112;SDS011;38109;49.488;31.988;2023-05-07T07:19:05;0.80;;;0.80;;
52112;SDS011;38109;49.488;31.988;2023-05-07T07:21:30;0.80;;;0.80;;
52112;SDS011;38109;49.488;31.988;2023-05-07T07:23:57;0.95;;;0.88;;
52112;SDS011;38109;49.488;31.988;2023-05-07T07:26:22;1.45;;;1.00;;
52112;SDS011;38109;49.488;31.988;2023-05-07T07:28:48;1.38;;;0.90;;
52112;SDS011;38109;49.488;31.988;2023-05-07T07:31:13;1.05;;;0.95;;
52112;SDS011;38109;49.488;31.988;2023-05-07T07:33:40;1.00;;;0.90;;
52112;SDS011;38109;49.488;31.988;2023-05-07T07:36:06;1.75;;;1.20;;
52112;SDS011;38109;49.488;31.988;2023-05-07T07:38:32;1.25;;;1.15;;
52112;SDS011;38109;49.488;31.988;2023-05-07T07:40:58;1.48;;;1.17;;
52112;SDS011;38109;49.488;31.988;2023-05-07T07:43:24;1.05;;;1.00;;
52112;SDS011;38109;49.488;31.988;2023-05-07T07:45:50;1.77;;;1.13;;
52112;SDS011;38109;49.488;31.988;2023-05-07T07:48:16;1.13;;;1.00;;
52112;SDS011;38109;49.488;31.988;2023-05-07T07:50:41;0.90;;;0.90;;
52112;SDS011;38109;49.488;31.988;2023-05-07T07:53:07;0.70;;;0.70;;
52112;SDS011;38109;49.488;31.988;2023-05-07T07:55:37;0.80;;;0.80;;
52112;SDS011;38109;49.488;31.988;2023-05-07T07:58:03;0.90;;;0.90;;
52112;SDS011;38109;49.488;31.988;2023-05-07T08:00:29;0.90;;;0.90;;
52112;SDS011;38109;49.488;31.988;2023-05-07T08:02:54;1.25;;;1.00;;
52112;SDS011;38109;49.488;31.988;2023-05-07T08:05:20;0.80;;;0.80;;
52112;SDS011;38109;49.488;31.988;2023-05-07T08:07:46;0.90;;;0.90;;
52112;SDS011;38109;49.488;31.988;2023-05-07T08:10:16;0.90;;;0.90;;
52112;SDS011;38109;49.488;31.988;2023-05-07T08:12:46;0.75;;;0.75;;
52112;SDS011;38109;49.488;31.988;2023-05-07T08:15:15;0.73;;;0.73;;
52112;SDS011;38109;49.488;31.988;2023-05-07T08:17:41;0.90;;;0.90;;
52112;SDS011;38109;49.488;31.988;2023-05-07T08:20:07;0.90;;;0.90;;
52112;SDS011;38109;49.488;31.988;2023-05-07T08:22:36;0.93;;;0.93;;
52112;SDS011;38109;49.488;31.988;2023-05-07T08:25:02;1.25;;;1.00;;
52112;SDS011;38109;49.488;31.988;2023-05-07T08:27:28;2.72;;;1.13;;
52112;SDS011;38109;49.488;31.988;2023-05-07T08:29:54;3.33;;;1.05;;
52112;SDS011;38109;49.488;31.988;2023-05-07T08:32:20;0.93;;;0.85;;
52112;SDS011;38109;49.488;31.988;2023-05-07T08:34:45;1.00;;;1.00;;
52112;SDS011;38109;49.488;31.988;2023-05-07T08:37:12;0.80;;;0.80;;
52112;SDS011;38109;49.488;31.988;2023-05-07T08:39:38;2.08;;;1.00;;
52112;SDS011;38109;49.488;31.988;2023-05-07T08:42:04;0.82;;;0.80;;
52112;SDS011;38109;49.488;31.988;2023-05-07T08:44:32;1.35;;;0.93;;
52112;SDS011;38109;49.488;31.988;2023-05-07T08:47:00;0.82;;;0.82;;
52112;SDS011;38109;49.488;31.988;2023-05-07T09:06:42;0.95;;;0.90;;
52112;SDS011;38109;49.488;31.988;2023-05-07T09:09:08;1.13;;;1.02;;
52112;SDS011;38109;49.488;31.988;2023-05-07T09:15:19;1.77;;;1.20;;
52112;SDS011;38109;49.488;31.988;2023-05-07T09:28:12;0.90;;;0.90;;
52112;SDS011;38109;49.488;31.988;2023-05-07T09:40:19;1.00;;;0.90;;
52112;SDS011;38109;49.488;31.988;2023-05-07T09:42:46;1.10;;;1.00;;
52112;SDS011;38109;49.488;31.988;2023-05-07T09:45:12;1.40;;;1.05;;
52112;SDS011;38109;49.488;31.988;2023-05-07T09:47:38;0.90;;;0.85;;
52112;SDS011;38109;49.488;31.988;2023-05-07T09:50:18;1.38;;;1.00;;
52112;SDS011;38109;49.488;31.988;2023-05-07T09:52:45;1.20;;;1.10;;
52112;SDS011;38109;49.488;31.988;2023-05-07T09:55:12;1.15;;;1.00;;
52112;SDS011;38109;49.488;31.988;2023-05-07T10:04:31;3.80;;;1.17;;
52112;SDS011;38109;49.488;31.988;2023-05-07T10:06:57;1.40;;;1.30;;
52112;SDS011;38109;49.488;31.988;2023-05-07T10:09:25;1.70;;;1.33;;
52112;SDS011;38109;49.488;31.988;2023-05-07T10:11:51;1.50;;;1.20;;
52112;SDS011;38109;49.488;31.988;2023-05-07T10:14:17;1.40;;;1.30;;
52112;SDS011;38109;49.488;31.988;2023-05-07T10:51:19;1.55;;;1.17;;
52112;SDS011;38109;49.488;31.988;2023-05-07T10:53:46;1.45;;;1.10;;
52112;SDS011;38109;49.488;31.988;2023-05-07T10:59:40;1.10;;;1.00;;
52112;SDS011;38109;49.488;31.988;2023-05-07T11:02:07;1.20;;;1.10;;
52112;SDS011;38109;49.488;31.988;2023-05-07T11:04:34;2.33;;;1.50;;
52112;SDS011;38109;49.488;31.988;2023-05-07T11:12:17;1.58;;;1.30;;
52112;SDS011;38109;49.488;31.988;2023-05-07T11:15:35;1.42;;;1.30;;
52112;SDS011;38109;49.488;31.988;2023-05-07T11:24:52;2.80;;;1.13;;
52112;SDS011;38109;49.488;31.988;2023-05-07T11:27:22;2.22;;;1.20;;
52112;SDS011;38109;49.488;31.988;2023-05-07T11:29:48;1.85;;;1.50;;
52112;SDS011;38109;49.488;31.988;2023-05-07T11:32:15;1.63;;;1.27;;
52112;SDS011;38109;49.488;31.988;2023-05-07T11:34:47;1.85;;;1.40;;
52112;SDS011;38109;49.488;31.988;2023-05-07T11:37:16;1.38;;;1.27;;
52112;SDS011;38109;49.488;31.988;2023-05-07T11:39:43;1.55;;;1.10;;
52112;SDS011;38109;49.488;31.988;2023-05-07T11:42:28;1.83;;;1.20;;
52112;SDS011;38109;49.488;31.988;2023-05-07T11:48:29;3.95;;;1.42;;
52112;SDS011;38109;49.488;31.988;2023-05-07T11:53:32;1.40;;;1.30;;
52112;SDS011;38109;49.488;31.988;2023-05-07T13:02:31;1.47;;;1.37;;
52112;SDS011;38109;49.488;31.988;2023-05-07T13:05:04;2.20;;;1.65;;
52112;SDS011;38109;49.488;31.988;2023-05-07T13:10:52;1.70;;;1.38;;
52112;SDS011;38109;49.488;31.988;2023-05-07T13:13:18;1.67;;;1.35;;
52112;SDS011;38109;49.488;31.988;2023-05-07T13:15:45;1.33;;;1.23;;
52112;SDS011;38109;49.488;31.988;2023-05-07T13:18:11;1.70;;;1.60;;
52112;SDS011;38109;49.488;31.988;2023-05-07T13:20:36;1.48;;;1.25;;
52112;SDS011;38109;49.488;31.988;2023-05-07T13:23:02;1.42;;;1.33;;
52112;SDS011;38109;49.488;31.988;2023-05-07T13:25:29;1.50;;;1.40;;
52112;SDS011;38109;49.488;31.988;2023-05-07T13:27:56;2.88;;;1.45;;
52112;SDS011;38109;49.488;31.988;2023-05-07T13:30:22;2.30;;;1.73;;
52112;SDS011;38109;49.488;31.988;2023-05-07T13:32:48;1.50;;;1.40;;
52112;SDS011;38109;49.488;31.988;2023-05-07T13:35:15;1.52;;;1.40;;
52112;SDS011;38109;49.488;31.988;2023-05-07T13:41:13;1.30;;;1.20;;
52112;SDS011;38109;49.488;31.988;2023-05-07T13:43:39;1.92;;;1.40;;
52112;SDS011;38109;49.488;31.988;2023-05-07T13:46:05;1.33;;;1.23;;
52112;SDS011;38109;49.488;31.988;2023-05-07T13:48:31;1.90;;;1.30;;
52112;SDS011;38109;49.488;31.988;2023-05-07T13:50:56;1.50;;;1.40;;
52112;SDS011;38109;49.488;31.988;2023-05-07T13:53:22;1.50;;;1.40;;
52112;SDS011;38109;49.488;31.988;2023-05-07T13:55:48;1.50;;;1.40;;
52112;SDS011;38109;49.488;31.988;2023-05-07T13:58:14;2.10;;;1.60;;
52112;SDS011;38109;49.488;31.988;2023-05-07T14:00:39;1.50;;;1.40;;
52112;SDS011;38109;49.488;31.988;2023-05-07T14:03:05;1.58;;;1.48;;
52112;SDS011;38109;49.488;31.988;2023-05-07T14:05:31;1.50;;;1.40;;
52112;SDS011;38109;49.488;31.988;2023-05-07T14:07:57;1.60;;;1.50;;
52112;SDS011;38109;49.488;31.988;2023-05-07T14:10:23;1.77;;;1.40;;
52112;SDS011;38109;49.488;31.988;2023-05-07T14:12:49;1.92;;;1.52;;
52112;SDS011;38109;49.488;31.988;2023-05-07T14:15:15;1.35;;;1.25;;
52112;SDS011;38109;49.488;31.988;2023-05-07T14:17:41;1.75;;;1.65;;
52112;SDS011;38109;49.488;31.988;2023-05-07T14:20:07;3.17;;;1.35;;
52112;SDS011;38109;49.488;31.988;2023-05-07T14:22:34;1.52;;;1.33;;
52112;SDS011;38109;49.488;31.988;2023-05-07T14:25:00;1.30;;;1.20;;
52112;SDS011;38109;49.488;31.988;2023-05-07T14:27:26;1.20;;;1.10;;
52112;SDS011;38109;49.488;31.988;2023-05-07T14:29:51;1.40;;;1.30;;
52112;SDS011;38109;49.488;31.988;2023-05-07T14:32:17;1.83;;;1.20;;
52112;SDS011;38109;49.488;31.988;2023-05-07T14:34:43;1.40;;;1.30;;
52112;SDS011;38109;49.488;31.988;2023-05-07T14:37:10;2.15;;;1.30;;
52112;SDS011;38109;49.488;31.988;2023-05-07T14:39:35;1.33;;;1.23;;
52112;SDS011;38109;49.488;31.988;2023-05-07T14:42:01;2.97;;;1.55;;
52112;SDS011;38109;49.488;31.988;2023-05-07T14:44:27;3.53;;;1.38;;
52112;SDS011;38109;49.488;31.988;2023-05-07T14:46:52;2.65;;;1.20;;
52112;SDS011;38109;49.488;31.988;2023-05-07T14:49:18;2.08;;;1.40;;
52112;SDS011;38109;49.488;31.988;2023-05-07T14:51:44;1.50;;;1.40;;
52112;SDS011;38109;49.488;31.988;2023-05-07T14:54:11;1.90;;;1.40;;
52112;SDS011;38109;49.488;31.988;2023-05-07T14:56:37;1.48;;;1.35;;
52112;SDS011;38109;49.488;31.988;2023-05-07T14:59:03;1.65;;;1.52;;
52112;SDS011;38109;49.488;31.988;2023-05-07T15:01:28;1.90;;;1.63;;
52112;SDS011;38109;49.488;31.988;2023-05-07T15:03:54;1.98;;;1.85;;
52112;SDS011;38109;49.488;31.988;2023-05-07T15:06:20;2.05;;;1.85;;
52112;SDS011;38109;49.488;31.988;2023-05-07T15:08:46;2.13;;;1.90;;
52112;SDS011;38109;49.488;31.988;2023-05-07T15:11:13;1.73;;;1.60;;
52112;SDS011;38109;49.488;31.988;2023-05-07T15:13:39;4.40;;;2.90;;
52112;SDS011;38109;49.488;31.988;2023-05-07T15:18:53;9.90;;;4.85;;
52112;SDS011;38109;49.488;31.988;2023-05-07T15:21:23;3.35;;;2.05;;
52112;SDS011;38109;49.488;31.988;2023-05-07T15:23:49;3.22;;;1.63;;
52112;SDS011;38109;49.488;31.988;2023-05-07T15:26:15;1.60;;;1.50;;
52112;SDS011;38109;49.488;31.988;2023-05-07T15:28:40;2.17;;;1.20;;
52112;SDS011;38109;49.488;31.988;2023-05-07T15:31:06;1.65;;;1.40;;
52112;SDS011;38109;49.488;31.988;2023-05-07T15:33:32;1.70;;;1.50;;
52112;SDS011;38109;49.488;31.988;2023-05-07T15:35:58;1.40;;;1.30;;
52112;SDS011;38109;49.488;31.988;2023-05-07T15:38:24;3.67;;;1.40;;
52112;SDS011;38109;49.488;31.988;2023-05-07T15:40:53;2.35;;;1.35;;
52112;SDS011;38109;49.488;31.988;2023-05-07T15:43:19;1.40;;;1.30;;
52112;SDS011;38109;49.488;31.988;2023-05-07T15:45:45;1.40;;;1.27;;
52112;SDS011;38109;49.488;31.988;2023-05-07T15:48:11;1.42;;;1.30;;
52112;SDS011;38109;49.488;31.988;2023-05-07T15:50:37;2.20;;;1.30;;
52112;SDS011;38109;49.488;31.988;2023-05-07T15:53:04;2.05;;;1.42;;
52112;SDS011;38109;49.488;31.988;2023-05-07T15:55:30;1.65;;;1.50;;
52112;SDS011;38109;49.488;31.988;2023-05-07T15:57:57;1.35;;;1.23;;
52112;SDS011;38109;49.488;31.988;2023-05-07T16:00:25;1.38;;;1.27;;
52112;SDS011;38109;49.488;31.988;2023-05-07T16:02:52;1.30;;;1.20;;
52112;SDS011;38109;49.488;31.988;2023-05-07T16:05:18;1.20;;;1.10;;
52112;SDS011;38109;49.488;31.988;2023-05-07T16:07:44;1.70;;;1.45;;
52112;SDS011;38109;49.488;31.988;2023-05-07T16:10:10;1.52;;;1.30;;
52112;SDS011;38109;49.488;31.988;2023-05-07T16:12:36;1.88;;;1.48;;
52112;SDS011;38109;49.488;31.988;2023-05-07T16:15:01;1.45;;;1.30;;
52112;SDS011;38109;49.488;31.988;2023-05-07T16:17:27;1.40;;;1.30;;
52112;SDS011;38109;49.488;31.988;2023-05-07T16:19:53;1.30;;;1.20;;
52112;SDS011;38109;49.488;31.988;2023-05-07T16:22:19;1.60;;;1.50;;
52112;SDS011;38109;49.488;31.988;2023-05-07T16:24:44;1.50;;;1.40;;
52112;SDS011;38109;49.488;31.988;2023-05-07T16:27:10;2.58;;;1.80;;
52112;SDS011;38109;49.488;31.988;2023-05-07T16:29:36;3.05;;;1.98;;
52112;SDS011;38109;49.488;31.988;2023-05-07T16:32:01;2.40;;;1.73;;
52112;SDS011;38109;49.488;31.988;2023-05-07T16:34:27;1.50;;;1.40;;
52112;SDS011;38109;49.488;31.988;2023-05-07T16:36:53;1.40;;;1.30;;
52112;SDS011;38109;49.488;31.988;2023-05-07T16:39:18;1.77;;;1.30;;
52112;SDS011;38109;49.488;31.988;2023-05-07T16:41:44;1.42;;;1.30;;
52112;SDS011;38109;49.488;31.988;2023-05-07T16:44:12;1.73;;;1.52;;
52112;SDS011;38109;49.488;31.988;2023-05-07T16:46:38;1.30;;;1.20;;
52112;SDS011;38109;49.488;31.988;2023-05-07T16:49:04;1.27;;;1.17;;
52112;SDS011;38109;49.488;31.988;2023-05-07T16:51:30;1.30;;;1.20;;
52112;SDS011;38109;49.488;31.988;2023-05-07T16:53:57;1.73;;;1.33;;
52112;SDS011;38109;49.488;31.988;2023-05-07T16:56:23;1.30;;;1.20;;
52112;SDS011;38109;49.488;31.988;2023-05-07T16:58:49;1.42;;;1.33;;
52112;SDS011;38109;49.488;31.988;2023-05-07T17:01:14;3.13;;;1.40;;
52112;SDS011;38109;49.488;31.988;2023-05-07T17:03:42;1.20;;;1.10;;
52112;SDS011;38109;49.488;31.988;2023-05-07T17:06:08;2.22;;;1.30;;
52112;SDS011;38109;49.488;31.988;2023-05-07T17:08:38;1.80;;;1.42;;
52112;SDS011;38109;49.488;31.988;2023-05-07T17:11:05;1.25;;;1.15;;
52112;SDS011;38109;49.488;31.988;2023-05-07T17:13:30;1.75;;;1.50;;
52112;SDS011;38109;49.488;31.988;2023-05-07T17:15:56;2.28;;;1.60;;
52112;SDS011;38109;49.488;31.988;2023-05-07T17:18:21;2.13;;;1.60;;
52112;SDS011;38109;49.488;31.988;2023-05-07T17:20:47;1.58;;;1.48;;
52112;SDS011;38109;49.488;31.988;2023-05-07T17:23:13;1.50;;;1.40;;
52112;SDS011;38109;49.488;31.988;2023-05-07T17:25:39;1.58;;;1.30;;
52112;SDS011;38109;49.488;31.988;2023-05-07T17:28:09;2.90;;;1.50;;
52112;SDS011;38109;49.488;31.988;2023-05-07T17:30:38;2.38;;;1.55;;
52112;SDS011;38109;49.488;31.988;2023-05-07T17:33:04;2.15;;;1.50;;
52112;SDS011;38109;49.488;31.988;2023-05-07T17:35:33;2.20;;;1.50;;
52112;SDS011;38109;49.488;31.988;2023-05-07T17:37:59;1.65;;;1.40;;
52112;SDS011;38109;49.488;31.988;2023-05-07T17:40:26;2.28;;;1.60;;
52112;SDS011;38109;49.488;31.988;2023-05-07T17:42:53;2.20;;;1.35;;
52112;SDS011;38109;49.488;31.988;2023-05-07T17:45:19;1.63;;;1.40;;
52112;SDS011;38109;49.488;31.988;2023-05-07T17:47:45;2.67;;;1.52;;
52112;SDS011;38109;49.488;31.988;2023-05-07T17:50:12;1.67;;;1.50;;
52112;SDS011;38109;49.488;31.988;2023-05-07T17:52:38;1.90;;;1.70;;
52112;SDS011;38109;49.488;31.988;2023-05-07T17:55:05;3.83;;;1.52;;
52112;SDS011;38109;49.488;31.988;2023-05-07T17:57:31;1.40;;;1.30;;
52112;SDS011;38109;49.488;31.988;2023-05-07T17:59:59;2.00;;;1.30;;
52112;SDS011;38109;49.488;31.988;2023-05-07T18:02:26;2.85;;;1.65;;
52112;SDS011;38109;49.488;31.988;2023-05-07T18:04:52;2.38;;;1.50;;
52112;SDS011;38109;49.488;31.988;2023-05-07T18:07:18;2.60;;;1.73;;
52112;SDS011;38109;49.488;31.988;2023-05-07T18:09:44;2.05;;;1.70;;
52112;SDS011;38109;49.488;31.988;2023-05-07T18:12:10;2.83;;;1.83;;
52112;SDS011;38109;49.488;31.988;2023-05-07T18:14:35;2.55;;;1.80;;
52112;SDS011;38109;49.488;31.988;2023-05-07T18:17:01;2.10;;;1.63;;
52112;SDS011;38109;49.488;31.988;2023-05-07T18:19:27;1.85;;;1.60;;